Time;durP1;ratioP1;P1;durP2;ratioP2;P2;SDS_P1;SDS_P2;PMS_P1;PMS_P2;Temp;Humidity;BMP_temperature;BMP_pressure;BME280_temperature;BME280_humidity;BME280_pressure;Samples;Min_cycle;Max_cycle;Signal;HPM_P1;HPM_P2
2022/06/15 00:01:40;;;;;;;7.00;3.42;;;;;;;;;;5071846;28;20036;-77
2022/06/15 00:04:06;;;;;;;7.55;3.50;;;;;;;;;;5083750;28;20072;-77
2022/06/15 00:06:37;;;;;;;8.80;3.35;;;;;;;;;;5083281;28;20025;-78
2022/06/15 00:09:02;;;;;;;8.18;3.30;;;;;;;;;;5083872;28;20204;-78
2022/06/15 00:11:31;;;;;;;5.25;3.15;;;;;;;;;;5083690;28;20091;-78
2022/06/15 00:14:06;;;;;;;6.85;3.40;;;;;;;;;;5083740;28;20024;-78
2022/06/15 00:16:31;;;;;;;7.35;3.10;;;;;;;;;;5083742;28;20024;-79
2022/06/15 00:18:57;;;;;;;6.57;3.35;;;;;;;;;;5083321;28;20024;-78
2022/06/15 00:21:22;;;;;;;8.65;3.55;;;;;;;;;;5065885;28;20091;-78
2022/06/15 00:23:48;;;;;;;6.22;3.10;;;;;;;;;;5079885;28;20317;-78
2022/06/15 00:26:14;;;;;;;8.35;3.30;;;;;;;;;;5066235;28;20295;-78
2022/06/15 00:28:40;;;;;;;4.57;3.00;;;;;;;;;;5070362;28;20077;-78
2022/06/15 00:31:06;;;;;;;5.43;3.13;;;;;;;;;;5076981;28;20040;-78
2022/06/15 00:33:31;;;;;;;4.53;2.90;;;;;;;;;;5070955;28;20020;-77
2022/06/15 00:36:03;;;;;;;7.30;3.10;;;;;;;;;;5075732;28;20233;-77
2022/06/15 00:38:35;;;;;;;8.27;3.00;;;;;;;;;;5083550;28;20031;-78
2022/06/15 00:41:01;;;;;;;5.78;2.85;;;;;;;;;;5051448;28;20036;-77
2022/06/15 00:43:35;;;;;;;8.40;3.10;;;;;;;;;;5059595;28;20211;-77
2022/06/15 00:46:01;;;;;;;6.07;3.03;;;;;;;;;;5084798;28;20166;-78
2022/06/15 00:48:26;;;;;;;5.40;2.72;;;;;;;;;;5075744;28;20236;-76
2022/06/15 00:50:52;;;;;;;7.72;2.83;;;;;;;;;;5080121;28;20033;-78
2022/06/15 00:53:17;;;;;;;7.00;2.95;;;;;;;;;;5052607;28;20063;-77
2022/06/15 00:55:43;;;;;;;6.40;3.00;;;;;;;;;;5080722;28;20063;-78
2022/06/15 00:58:09;;;;;;;5.20;2.67;;;;;;;;;;5078841;28;20046;-78
2022/06/15 01:00:35;;;;;;;6.07;2.90;;;;;;;;;;5072745;28;20028;-78
2022/06/15 01:03:00;;;;;;;8.45;2.78;;;;;;;;;;5076721;28;20155;-78
2022/06/15 01:05:44;;;;;;;8.50;2.70;;;;;;;;;;5065828;28;20032;-78
2022/06/15 01:08:26;;;;;;;7.35;2.85;;;;;;;;;;5063951;28;20378;-78
2022/06/15 01:11:08;;;;;;;5.25;2.70;;;;;;;;;;5081534;28;20366;-78
2022/06/15 01:13:39;;;;;;;6.97;2.65;;;;;;;;;;5063591;28;20450;-77
2022/06/15 01:16:10;;;;;;;4.72;2.58;;;;;;;;;;5068239;28;20020;-78
2022/06/15 01:18:48;;;;;;;4.18;2.60;;;;;;;;;;5083713;28;20055;-78
2022/06/15 01:21:26;;;;;;;7.72;2.75;;;;;;;;;;5082178;28;20205;-78
2022/06/15 01:24:22;;;;;;;11.20;2.78;;;;;;;;;;5076999;28;20029;-77
2022/06/15 01:27:14;;;;;;;5.88;2.70;;;;;;;;;;5078084;28;20070;-78
2022/06/15 01:29:59;;;;;;;4.15;2.65;;;;;;;;;;5063315;28;20436;-78
2022/06/15 01:32:38;;;;;;;6.15;2.90;;;;;;;;;;5066138;28;20024;-78
2022/06/15 01:35:22;;;;;;;7.32;2.70;;;;;;;;;;5073374;28;20273;-77
2022/06/15 01:37:59;;;;;;;4.65;2.40;;;;;;;;;;5078363;28;20329;-78
2022/06/15 01:40:25;;;;;;;6.07;2.60;;;;;;;;;;5064479;28;20033;-78
2022/06/15 01:42:59;;;;;;;5.07;2.78;;;;;;;;;;5063150;28;20043;-77
2022/06/15 01:45:28;;;;;;;6.00;2.80;;;;;;;;;;5072279;28;20217;-77
2022/06/15 01:47:59;;;;;;;4.78;2.67;;;;;;;;;;5081329;28;20087;-78
2022/06/15 01:50:29;;;;;;;6.18;2.63;;;;;;;;;;5071897;28;20062;-77
2022/06/15 01:53:13;;;;;;;6.03;2.70;;;;;;;;;;5082542;28;20036;-78
2022/06/15 01:55:47;;;;;;;10.13;2.80;;;;;;;;;;5071562;28;20021;-78
2022/06/15 01:58:16;;;;;;;4.72;2.80;;;;;;;;;;5063125;28;20036;-78
2022/06/15 02:00:49;;;;;;;4.80;2.63;;;;;;;;;;5064231;28;20032;-78
2022/06/15 02:03:23;;;;;;;5.20;2.80;;;;;;;;;;5044773;28;20032;-78
2022/06/15 02:06:10;;;;;;;4.40;2.72;;;;;;;;;;5070673;28;20032;-78
2022/06/15 02:09:12;;;;;;;4.85;2.53;;;;;;;;;;5064509;28;20039;-76
2022/06/15 02:11:42;;;;;;;7.00;2.85;;;;;;;;;;5076712;28;20036;-79
2022/06/15 02:14:39;;;;;;;4.72;2.60;;;;;;;;;;5062815;28;20325;-79
2022/06/15 02:17:13;;;;;;;5.82;2.85;;;;;;;;;;5075003;28;20068;-79
2022/06/15 02:19:45;;;;;;;4.88;2.60;;;;;;;;;;5082315;28;20036;-78
2022/06/15 02:22:17;;;;;;;6.55;2.72;;;;;;;;;;5082288;28;20037;-78
2022/06/15 02:24:46;;;;;;;5.65;2.85;;;;;;;;;;5069795;28;20044;-78
2022/06/15 02:27:12;;;;;;;4.78;2.70;;;;;;;;;;5080775;28;20213;-78
2022/06/15 02:29:39;;;;;;;6.57;2.75;;;;;;;;;;5066032;28;20029;-78
2022/06/15 02:32:10;;;;;;;5.85;2.80;;;;;;;;;;5080716;28;20036;-78
2022/06/15 02:34:36;;;;;;;4.85;2.78;;;;;;;;;;5081250;28;20340;-78
2022/06/15 02:37:03;;;;;;;6.43;2.83;;;;;;;;;;5072044;28;20037;-78
2022/06/15 02:39:28;;;;;;;4.47;2.60;;;;;;;;;;5064410;28;20025;-78
2022/06/15 02:41:58;;;;;;;11.05;3.03;;;;;;;;;;5061997;28;20025;-78
2022/06/15 02:44:24;;;;;;;13.35;2.90;;;;;;;;;;5077882;28;20024;-78
2022/06/15 02:46:51;;;;;;;5.18;2.80;;;;;;;;;;5066671;28;20587;-78
2022/06/15 02:49:16;;;;;;;7.70;3.10;;;;;;;;;;5074235;28;20251;-78
2022/06/15 02:52:01;;;;;;;10.20;2.92;;;;;;;;;;5063166;28;20072;-78
2022/06/15 02:54:33;;;;;;;4.63;2.78;;;;;;;;;;5072050;28;20017;-78
2022/06/15 02:56:58;;;;;;;4.32;2.55;;;;;;;;;;5069520;28;20036;-77
2022/06/15 02:59:24;;;;;;;6.15;2.92;;;;;;;;;;5053244;28;20186;-78
2022/06/15 03:01:49;;;;;;;7.03;3.10;;;;;;;;;;5075122;28;20347;-78
2022/06/15 03:04:15;;;;;;;7.55;3.03;;;;;;;;;;5062454;28;20116;-79
2022/06/15 03:06:40;;;;;;;8.15;2.80;;;;;;;;;;5061723;28;20024;-78
2022/06/15 03:09:06;;;;;;;5.13;2.72;;;;;;;;;;5061878;28;20021;-78
2022/06/15 03:11:31;;;;;;;6.90;2.85;;;;;;;;;;5068153;28;20312;-79
2022/06/15 03:13:57;;;;;;;4.88;2.60;;;;;;;;;;5081611;28;20048;-78
2022/06/15 03:16:22;;;;;;;6.30;3.05;;;;;;;;;;5079429;28;20074;-78
2022/06/15 03:18:48;;;;;;;7.20;2.78;;;;;;;;;;5081278;28;20067;-78
2022/06/15 03:21:14;;;;;;;5.28;2.67;;;;;;;;;;5073158;28;20032;-78
2022/06/15 03:23:39;;;;;;;4.65;2.58;;;;;;;;;;5061423;28;20032;-79
2022/06/15 03:26:05;;;;;;;7.55;3.05;;;;;;;;;;5073090;28;20096;-78
2022/06/15 03:28:30;;;;;;;7.18;3.17;;;;;;;;;;5063673;28;20193;-78
2022/06/15 03:30:57;;;;;;;5.15;2.80;;;;;;;;;;5068648;28;20237;-78
2022/06/15 03:33:23;;;;;;;4.00;2.60;;;;;;;;;;5062551;28;20062;-78
2022/06/15 03:35:49;;;;;;;6.88;2.67;;;;;;;;;;5073120;28;20081;-78
2022/06/15 03:38:14;;;;;;;7.18;2.70;;;;;;;;;;5081114;28;20032;-78
2022/06/15 03:40:46;;;;;;;6.00;2.60;;;;;;;;;;5062219;28;20065;-78
2022/06/15 03:43:12;;;;;;;5.22;2.63;;;;;;;;;;5081210;28;20224;-78
2022/06/15 03:45:38;;;;;;;7.55;2.90;;;;;;;;;;5072324;28;20067;-78
2022/06/15 03:48:04;;;;;;;5.43;2.70;;;;;;;;;;5061067;28;20032;-78
2022/06/15 03:50:31;;;;;;;6.72;2.88;;;;;;;;;;5061447;28;20040;-78
2022/06/15 03:52:58;;;;;;;4.70;2.47;;;;;;;;;;5060993;28;20028;-78
2022/06/15 03:55:23;;;;;;;6.57;2.90;;;;;;;;;;5062143;28;20021;-78
2022/06/15 03:57:48;;;;;;;6.18;2.72;;;;;;;;;;5062000;28;20032;-78
2022/06/15 04:00:17;;;;;;;8.25;2.72;;;;;;;;;;5073872;28;20272;-78
2022/06/15 04:02:43;;;;;;;5.35;2.80;;;;;;;;;;5079018;28;20109;-78
2022/06/15 04:05:16;;;;;;;7.03;2.97;;;;;;;;;;5077292;28;20096;-78
2022/06/15 04:10:25;;;;;;;20.48;3.00;;;;;;;;;;5065990;28;20070;-78
2022/06/15 04:12:51;;;;;;;30.85;3.72;;;;;;;;;;5081110;28;20220;-78
2022/06/15 04:15:16;;;;;;;25.80;3.20;;;;;;;;;;5069255;28;20029;-78
2022/06/15 04:17:44;;;;;;;24.63;3.17;;;;;;;;;;5044819;28;20025;-78
2022/06/15 04:20:31;;;;;;;25.58;3.67;;;;;;;;;;5065965;28;20028;-78
2022/06/15 04:22:57;;;;;;;23.10;3.65;;;;;;;;;;5066490;28;20034;-78
2022/06/15 04:25:22;;;;;;;19.05;3.22;;;;;;;;;;5068017;28;20021;-79
2022/06/15 04:27:48;;;;;;;17.52;3.08;;;;;;;;;;5074850;28;20775;-86
2022/06/15 04:30:13;;;;;;;9.25;2.67;;;;;;;;;;5070061;28;20037;-77
2022/06/15 04:32:38;;;;;;;9.55;2.90;;;;;;;;;;5075279;28;20301;-77
2022/06/15 04:35:04;;;;;;;6.82;2.85;;;;;;;;;;5078853;28;20036;-77
2022/06/15 04:37:30;;;;;;;14.10;2.95;;;;;;;;;;5062731;28;20033;-78
2022/06/15 04:39:55;;;;;;;14.65;2.78;;;;;;;;;;5064833;28;20199;-77
2022/06/15 04:42:20;;;;;;;10.65;2.97;;;;;;;;;;5060517;28;20028;-78
2022/06/15 04:44:46;;;;;;;9.95;2.80;;;;;;;;;;5078268;28;20095;-77
2022/06/15 04:47:11;;;;;;;8.27;2.67;;;;;;;;;;5077050;28;20074;-78
2022/06/15 04:49:36;;;;;;;15.60;3.10;;;;;;;;;;5066012;28;20028;-79
2022/06/15 04:52:02;;;;;;;18.42;2.92;;;;;;;;;;5064463;28;20032;-77
2022/06/15 04:54:28;;;;;;;7.95;2.50;;;;;;;;;;5073189;28;20016;-75
2022/06/15 04:56:53;;;;;;;9.68;2.80;;;;;;;;;;5076614;28;20407;-74
2022/06/15 04:59:18;;;;;;;6.80;2.45;;;;;;;;;;5081339;28;20092;-75
2022/06/15 05:01:44;;;;;;;7.93;2.83;;;;;;;;;;5081878;28;20040;-74
2022/06/15 05:04:09;;;;;;;10.88;2.83;;;;;;;;;;5083523;28;20059;-74
2022/06/15 05:06:38;;;;;;;16.35;2.80;;;;;;;;;;5073595;28;20025;-75
2022/06/15 05:09:06;;;;;;;10.63;2.65;;;;;;;;;;5064011;28;20033;-76
2022/06/15 05:11:32;;;;;;;13.35;3.00;;;;;;;;;;5063613;28;20066;-76
2022/06/15 05:13:58;;;;;;;7.45;2.88;;;;;;;;;;5063778;28;20228;-76
2022/06/15 05:16:24;;;;;;;14.13;3.30;;;;;;;;;;5063614;28;20025;-77
2022/06/15 05:18:49;;;;;;;14.05;3.03;;;;;;;;;;5070864;28;20030;-76
2022/06/15 05:21:14;;;;;;;14.15;3.30;;;;;;;;;;5074797;28;20028;-76
2022/06/15 05:23:40;;;;;;;12.40;3.20;;;;;;;;;;5069529;28;20029;-76
2022/06/15 05:26:05;;;;;;;10.75;2.85;;;;;;;;;;5074085;28;20059;-77
2022/06/15 05:28:31;;;;;;;17.58;2.97;;;;;;;;;;5070444;28;20029;-76
2022/06/15 05:31:04;;;;;;;15.75;2.90;;;;;;;;;;5068600;28;20048;-76
2022/06/15 05:33:32;;;;;;;19.52;3.30;;;;;;;;;;5070378;28;20025;-74
2022/06/15 05:36:07;;;;;;;14.82;3.20;;;;;;;;;;5063253;28;20025;-76
2022/06/15 05:38:32;;;;;;;15.10;3.08;;;;;;;;;;5062706;28;20047;-76
2022/06/15 05:40:57;;;;;;;13.68;3.45;;;;;;;;;;5062248;28;20373;-76
2022/06/15 05:43:23;;;;;;;9.15;2.92;;;;;;;;;;5062720;28;20124;-76
2022/06/15 05:45:48;;;;;;;10.27;2.85;;;;;;;;;;5063042;28;20031;-76
2022/06/15 05:48:13;;;;;;;16.40;2.85;;;;;;;;;;5062948;28;20025;-76
2022/06/15 05:50:39;;;;;;;14.25;3.03;;;;;;;;;;5062821;28;20025;-76
2022/06/15 05:53:04;;;;;;;15.32;3.28;;;;;;;;;;5062625;28;20032;-76
2022/06/15 05:55:29;;;;;;;9.68;2.92;;;;;;;;;;5062772;28;20071;-76
2022/06/15 05:57:55;;;;;;;8.85;2.83;;;;;;;;;;5065354;28;20031;-77
2022/06/15 06:00:22;;;;;;;9.38;2.80;;;;;;;;;;5079921;28;20025;-77
2022/06/15 06:02:48;;;;;;;16.45;3.20;;;;;;;;;;5081285;28;20032;-76
2022/06/15 06:05:13;;;;;;;14.75;3.25;;;;;;;;;;5081488;28;20144;-75
2022/06/15 06:07:38;;;;;;;10.25;3.00;;;;;;;;;;5081190;28;20050;-76
2022/06/15 06:10:04;;;;;;;12.80;3.00;;;;;;;;;;5079778;28;20028;-76
2022/06/15 06:12:30;;;;;;;13.30;3.00;;;;;;;;;;5081136;28;20024;-76
2022/06/15 06:14:56;;;;;;;14.63;2.92;;;;;;;;;;5081720;28;20048;-76
2022/06/15 06:17:22;;;;;;;7.82;2.63;;;;;;;;;;5081836;28;20059;-76
2022/06/15 06:19:47;;;;;;;11.82;3.55;;;;;;;;;;5081866;28;20206;-76
2022/06/15 06:22:13;;;;;;;12.38;3.40;;;;;;;;;;5080221;28;20048;-76
2022/06/15 06:24:38;;;;;;;16.13;3.50;;;;;;;;;;5080999;28;20084;-77
2022/06/15 06:27:06;;;;;;;10.32;3.50;;;;;;;;;;5080810;28;20028;-77
2022/06/15 06:29:33;;;;;;;11.57;3.33;;;;;;;;;;5080712;28;20047;-77
2022/06/15 06:32:00;;;;;;;11.75;3.10;;;;;;;;;;5080478;28;20033;-77
2022/06/15 06:34:26;;;;;;;15.55;3.30;;;;;;;;;;5080728;28;20219;-76
2022/06/15 06:36:52;;;;;;;15.27;3.28;;;;;;;;;;5078381;28;20017;-76
2022/06/15 06:39:24;;;;;;;15.05;3.13;;;;;;;;;;5080500;28;20350;-76
2022/06/15 06:41:50;;;;;;;17.90;3.80;;;;;;;;;;5053279;28;20071;-76
2022/06/15 06:44:16;;;;;;;14.32;3.80;;;;;;;;;;5065065;28;20028;-76
2022/06/15 06:46:44;;;;;;;12.52;3.22;;;;;;;;;;5076855;28;20021;-76
2022/06/15 06:49:11;;;;;;;18.52;3.70;;;;;;;;;;5081204;28;20151;-77
2022/06/15 06:51:38;;;;;;;14.10;3.40;;;;;;;;;;5081775;28;20035;-76
2022/06/15 06:54:06;;;;;;;16.17;3.45;;;;;;;;;;5081448;28;20035;-76
2022/06/15 06:56:34;;;;;;;16.33;3.20;;;;;;;;;;5081024;28;20024;-76
2022/06/15 06:58:59;;;;;;;14.60;2.90;;;;;;;;;;5081171;28;20145;-77
2022/06/15 07:01:25;;;;;;;9.20;2.90;;;;;;;;;;5081338;28;20470;-77
2022/06/15 07:03:50;;;;;;;11.55;2.70;;;;;;;;;;5081466;28;20208;-76
2022/06/15 07:06:15;;;;;;;9.65;2.88;;;;;;;;;;5081459;28;20105;-78
2022/06/15 07:08:41;;;;;;;9.45;2.78;;;;;;;;;;5080877;28;20032;-77
2022/06/15 07:11:11;;;;;;;10.75;3.13;;;;;;;;;;5080563;28;20151;-77
2022/06/15 07:13:37;;;;;;;7.25;3.13;;;;;;;;;;5081267;28;20240;-76
2022/06/15 07:16:07;;;;;;;14.77;3.17;;;;;;;;;;5081443;28;20091;-76
2022/06/15 07:18:33;;;;;;;9.65;3.10;;;;;;;;;;5081135;28;20213;-77
2022/06/15 07:21:08;;;;;;;19.58;3.22;;;;;;;;;;5063589;28;20020;-77
2022/06/15 07:23:34;;;;;;;16.98;3.45;;;;;;;;;;5080986;28;20059;-76
2022/06/15 07:26:05;;;;;;;11.05;3.00;;;;;;;;;;5080949;28;20024;-77
2022/06/15 07:28:31;;;;;;;11.93;2.72;;;;;;;;;;5081059;28;20055;-76
2022/06/15 07:30:56;;;;;;;12.57;2.95;;;;;;;;;;5081191;28;20382;-76
2022/06/15 07:33:22;;;;;;;12.20;3.00;;;;;;;;;;5081212;28;20060;-76
2022/06/15 07:35:47;;;;;;;7.35;2.92;;;;;;;;;;5080725;28;20040;-78
2022/06/15 07:38:12;;;;;;;6.35;2.50;;;;;;;;;;5080922;28;20024;-77
2022/06/15 07:40:38;;;;;;;11.38;2.90;;;;;;;;;;5080887;28;20259;-77
2022/06/15 07:43:04;;;;;;;12.57;2.83;;;;;;;;;;5080373;28;20091;-77
2022/06/15 07:45:29;;;;;;;8.93;2.60;;;;;;;;;;5071719;28;20412;-76
2022/06/15 07:50:42;;;;;;;7.22;2.70;;;;;;;;;;5019917;28;20029;-77
2022/06/15 07:53:10;;;;;;;16.42;2.92;;;;;;;;;;5060497;28;20016;-77
2022/06/15 07:55:38;;;;;;;9.02;2.78;;;;;;;;;;5042916;28;20025;-77
2022/06/15 07:58:05;;;;;;;10.40;2.75;;;;;;;;;;5064166;28;20020;-78
2022/06/15 08:00:31;;;;;;;12.40;2.88;;;;;;;;;;5080849;28;20091;-77
2022/06/15 08:02:58;;;;;;;11.52;2.90;;;;;;;;;;5080818;28;20031;-77
2022/06/15 08:05:25;;;;;;;10.88;2.40;;;;;;;;;;5080755;28;20095;-77
2022/06/15 08:07:51;;;;;;;8.85;2.90;;;;;;;;;;5080812;28;20024;-77
2022/06/15 08:10:20;;;;;;;14.77;2.42;;;;;;;;;;5080577;28;20029;-77
2022/06/15 08:12:46;;;;;;;10.40;2.63;;;;;;;;;;5080701;28;20316;-78
2022/06/15 08:15:12;;;;;;;5.93;2.38;;;;;;;;;;5080465;28;20036;-77
2022/06/15 08:17:45;;;;;;;12.38;2.97;;;;;;;;;;5080633;28;20055;-77
2022/06/15 08:20:18;;;;;;;8.15;2.70;;;;;;;;;;5080776;28;20040;-77
2022/06/15 08:22:46;;;;;;;10.45;2.55;;;;;;;;;;5084478;28;20024;-77
2022/06/15 08:25:14;;;;;;;12.68;2.72;;;;;;;;;;5080467;28;20039;-77
2022/06/15 08:27:41;;;;;;;7.13;2.50;;;;;;;;;;5046648;28;20313;-77
2022/06/15 08:30:10;;;;;;;7.93;2.65;;;;;;;;;;5064395;28;20089;-77
2022/06/15 08:32:36;;;;;;;6.93;2.30;;;;;;;;;;5064391;28;20131;-77
2022/06/15 08:35:02;;;;;;;9.65;2.78;;;;;;;;;;5064201;28;20048;-77
2022/06/15 08:37:28;;;;;;;9.35;2.60;;;;;;;;;;5064330;28;20056;-77
2022/06/15 08:39:54;;;;;;;11.07;2.80;;;;;;;;;;5064035;28;20048;-77
2022/06/15 08:42:37;;;;;;;8.80;2.65;;;;;;;;;;5063871;28;20352;-77
2022/06/15 08:45:21;;;;;;;10.13;2.70;;;;;;;;;;5064181;28;20305;-77
2022/06/15 08:47:49;;;;;;;12.27;2.53;;;;;;;;;;5063860;28;20051;-76
2022/06/15 08:50:32;;;;;;;9.20;2.40;;;;;;;;;;5063907;28;20067;-77
2022/06/15 08:53:09;;;;;;;11.07;2.47;;;;;;;;;;5071444;28;20021;-77
2022/06/15 08:55:56;;;;;;;11.27;2.75;;;;;;;;;;5063896;28;20029;-77
2022/06/15 08:58:26;;;;;;;6.38;2.50;;;;;;;;;;5066253;28;20121;-76
2022/06/15 09:00:55;;;;;;;12.98;2.55;;;;;;;;;;5084227;28;20221;-77
2022/06/15 09:03:31;;;;;;;10.88;2.63;;;;;;;;;;5068570;28;20070;-77
2022/06/15 09:05:56;;;;;;;9.57;2.70;;;;;;;;;;5063767;28;20024;-77
2022/06/15 09:08:41;;;;;;;11.80;2.90;;;;;;;;;;5080645;28;20031;-77
2022/06/15 09:11:33;;;;;;;19.10;2.88;;;;;;;;;;5082421;28;20028;-77
2022/06/15 09:14:33;;;;;;;8.43;2.42;;;;;;;;;;5075035;28;20024;-76
2022/06/15 09:17:07;;;;;;;13.00;2.85;;;;;;;;;;5067157;28;20252;-76
2022/06/15 09:19:40;;;;;;;10.70;2.92;;;;;;;;;;5070377;28;20017;-75
2022/06/15 09:22:13;;;;;;;12.52;2.80;;;;;;;;;;5067797;28;20036;-75
2022/06/15 09:24:51;;;;;;;6.55;2.40;;;;;;;;;;5072547;28;20313;-76
2022/06/15 09:27:41;;;;;;;10.73;2.60;;;;;;;;;;5058337;28;20362;-76
2022/06/15 09:30:19;;;;;;;9.57;2.63;;;;;;;;;;5069090;28;20064;-76
2022/06/15 09:32:59;;;;;;;8.02;2.60;;;;;;;;;;5057206;28;20025;-76
2022/06/15 09:35:37;;;;;;;8.27;2.95;;;;;;;;;;5065635;28;20021;-76
2022/06/15 09:38:06;;;;;;;9.57;2.55;;;;;;;;;;5069863;28;20033;-76
2022/06/15 09:40:55;;;;;;;10.50;2.70;;;;;;;;;;5071687;28;20035;-75
2022/06/15 09:43:20;;;;;;;9.48;2.63;;;;;;;;;;5067894;28;20033;-75
2022/06/15 09:45:59;;;;;;;12.25;2.70;;;;;;;;;;5068416;28;20024;-76
2022/06/15 09:48:34;;;;;;;7.78;2.88;;;;;;;;;;5077185;28;20279;-75
2022/06/15 09:51:14;;;;;;;9.23;2.83;;;;;;;;;;5066068;28;20025;-75
2022/06/15 09:53:45;;;;;;;11.80;2.90;;;;;;;;;;5073542;28;20098;-75
2022/06/15 09:56:14;;;;;;;11.45;2.78;;;;;;;;;;5072833;28;20099;-76
2022/06/15 09:59:08;;;;;;;10.00;2.80;;;;;;;;;;5076152;28;20036;-75
2022/06/15 10:01:41;;;;;;;10.85;2.80;;;;;;;;;;5071940;28;20469;-76
2022/06/15 10:04:17;;;;;;;7.35;2.60;;;;;;;;;;5067888;28;20056;-77
2022/06/15 10:06:48;;;;;;;8.57;2.88;;;;;;;;;;5064851;28;20021;-77
2022/06/15 10:09:17;;;;;;;6.85;2.75;;;;;;;;;;5069704;28;20091;-75
2022/06/15 10:11:50;;;;;;;8.30;2.90;;;;;;;;;;5049469;28;20025;-76
2022/06/15 10:14:19;;;;;;;8.43;2.97;;;;;;;;;;5062079;28;20209;-76
2022/06/15 10:16:52;;;;;;;5.63;2.85;;;;;;;;;;5068049;28;20051;-75
2022/06/15 10:19:17;;;;;;;8.23;2.90;;;;;;;;;;5068019;28;20416;-76
2022/06/15 10:21:50;;;;;;;11.38;2.78;;;;;;;;;;5055519;28;20063;-76
2022/06/15 10:24:26;;;;;;;9.32;2.83;;;;;;;;;;5067039;28;20066;-76
2022/06/15 10:27:19;;;;;;;16.27;3.42;;;;;;;;;;5052146;28;20033;-75
2022/06/15 10:29:55;;;;;;;8.60;2.70;;;;;;;;;;5076484;28;20037;-77
2022/06/15 10:32:21;;;;;;;5.82;2.80;;;;;;;;;;5068680;28;20249;-75
2022/06/15 10:34:46;;;;;;;11.93;2.75;;;;;;;;;;5071072;28;20047;-76
2022/06/15 10:37:20;;;;;;;10.70;2.80;;;;;;;;;;5068221;28;20190;-75
2022/06/15 10:39:51;;;;;;;13.02;3.10;;;;;;;;;;5062464;28;20035;-76
2022/06/15 10:42:41;;;;;;;8.07;2.72;;;;;;;;;;5068317;28;20124;-75
2022/06/15 10:45:19;;;;;;;13.95;2.95;;;;;;;;;;5047783;28;20035;-75
2022/06/15 10:47:54;;;;;;;6.20;2.60;;;;;;;;;;5061868;28;20446;-77
2022/06/15 10:50:42;;;;;;;7.22;2.50;;;;;;;;;;5067437;28;20047;-78
2022/06/15 10:53:34;;;;;;;13.10;3.22;;;;;;;;;;5071076;28;20184;-77
2022/06/15 11:04:33;;;;;;;7.10;2.72;;;;;;;;;;5069003;28;20280;-78
2022/06/15 11:07:06;;;;;;;6.10;2.72;;;;;;;;;;5071192;28;20028;-78
2022/06/15 11:09:59;;;;;;;6.40;2.65;;;;;;;;;;5067112;28;20064;-79
2022/06/15 11:12:49;;;;;;;7.63;2.95;;;;;;;;;;5061487;28;20359;-78
2022/06/15 11:15:17;;;;;;;6.20;2.70;;;;;;;;;;5052186;28;20056;-78
2022/06/15 11:18:02;;;;;;;7.85;2.83;;;;;;;;;;5062521;28;20089;-77
2022/06/15 11:20:48;;;;;;;8.02;3.00;;;;;;;;;;5070247;28;20265;-78
2022/06/15 11:23:21;;;;;;;6.60;3.03;;;;;;;;;;5064198;28;20044;-79
2022/06/15 11:25:56;;;;;;;8.13;2.95;;;;;;;;;;5071420;28;20062;-80
2022/06/15 11:28:31;;;;;;;6.40;3.03;;;;;;;;;;5061128;28;20029;-77
2022/06/15 11:31:05;;;;;;;5.70;2.75;;;;;;;;;;5060070;28;20045;-78
2022/06/15 11:33:45;;;;;;;12.13;3.47;;;;;;;;;;5060868;28;20017;-78
2022/06/15 11:36:15;;;;;;;4.93;2.60;;;;;;;;;;5061156;28;20044;-78
2022/06/15 11:38:56;;;;;;;5.43;2.78;;;;;;;;;;5072292;28;20095;-77
2022/06/15 11:41:33;;;;;;;7.18;2.95;;;;;;;;;;5078466;28;20024;-76
2022/06/15 11:44:02;;;;;;;4.93;2.95;;;;;;;;;;5060513;28;20071;-76
2022/06/15 11:46:55;;;;;;;6.43;3.00;;;;;;;;;;5061040;28;20021;-77
2022/06/15 11:49:56;;;;;;;9.80;3.10;;;;;;;;;;5060945;28;20072;-77
2022/06/15 11:52:27;;;;;;;5.18;2.67;;;;;;;;;;5036123;28;20033;-77
2022/06/15 11:55:18;;;;;;;6.68;2.65;;;;;;;;;;5060784;28;20055;-77
2022/06/15 11:58:21;;;;;;;7.18;2.60;;;;;;;;;;5060958;28;20059;-77
2022/06/15 12:01:24;;;;;;;6.47;2.90;;;;;;;;;;5060847;28;20025;-78
2022/06/15 12:04:15;;;;;;;7.50;2.92;;;;;;;;;;5060650;28;20189;-78
2022/06/15 12:07:05;;;;;;;7.90;3.08;;;;;;;;;;5060510;28;20332;-76
2022/06/15 12:09:42;;;;;;;6.97;2.90;;;;;;;;;;5068670;28;20086;-77
2022/06/15 12:15:32;;;;;;;9.57;3.00;;;;;;;;;;5060728;28;20336;-77
2022/06/15 12:18:28;;;;;;;6.80;2.80;;;;;;;;;;5060753;28;20371;-76
2022/06/15 12:21:31;;;;;;;8.60;2.78;;;;;;;;;;5060729;28;20052;-76
2022/06/15 12:24:25;;;;;;;9.80;3.60;;;;;;;;;;5060466;28;20029;-77
2022/06/15 12:27:24;;;;;;;4.93;3.13;;;;;;;;;;5043259;28;20048;-78
2022/06/15 12:30:02;;;;;;;7.80;3.03;;;;;;;;;;4975673;28;20041;-77
2022/06/15 12:33:03;;;;;;;8.63;3.17;;;;;;;;;;5060559;28;20032;-76
2022/06/15 12:35:47;;;;;;;6.15;2.78;;;;;;;;;;5062924;28;20340;-76
2022/06/15 12:38:29;;;;;;;7.60;2.58;;;;;;;;;;5080502;28;20043;-76
2022/06/15 12:40:54;;;;;;;6.53;3.10;;;;;;;;;;5080166;28;20032;-78
2022/06/15 12:43:33;;;;;;;7.80;2.72;;;;;;;;;;5080469;28;20039;-78
2022/06/15 12:46:05;;;;;;;6.22;2.70;;;;;;;;;;5080572;28;20040;-77
2022/06/15 12:48:34;;;;;;;9.25;2.70;;;;;;;;;;5080554;28;20027;-79
2022/06/15 12:51:03;;;;;;;7.32;2.92;;;;;;;;;;5080447;28;20040;-78
2022/06/15 12:53:59;;;;;;;7.35;2.75;;;;;;;;;;5080250;28;20390;-77
2022/06/15 12:56:35;;;;;;;9.10;2.95;;;;;;;;;;5080103;28;20317;-78
2022/06/15 12:59:24;;;;;;;10.05;3.00;;;;;;;;;;5080146;28;20079;-77
2022/06/15 13:02:16;;;;;;;7.55;3.60;;;;;;;;;;5070055;28;20043;-78
2022/06/15 13:04:47;;;;;;;8.57;3.20;;;;;;;;;;5060478;28;20032;-79
2022/06/15 13:07:26;;;;;;;8.55;2.63;;;;;;;;;;5060073;28;20032;-78
2022/06/15 13:10:06;;;;;;;5.68;2.75;;;;;;;;;;5076113;28;20033;-78
2022/06/15 13:12:35;;;;;;;7.72;2.83;;;;;;;;;;5080659;28;20028;-78
2022/06/15 13:15:01;;;;;;;7.45;3.10;;;;;;;;;;5055845;28;20099;-77
2022/06/15 13:18:06;;;;;;;7.57;2.88;;;;;;;;;;5079021;28;20025;-79
2022/06/15 13:20:32;;;;;;;11.18;2.70;;;;;;;;;;5071441;28;20033;-80
2022/06/15 13:22:57;;;;;;;10.38;2.88;;;;;;;;;;5073904;28;20087;-80
2022/06/15 13:25:23;;;;;;;7.05;2.70;;;;;;;;;;5082684;28;20043;-79
2022/06/15 13:28:08;;;;;;;7.68;2.95;;;;;;;;;;5069768;28;20033;-80
2022/06/15 13:30:48;;;;;;;5.95;2.72;;;;;;;;;;5064257;28;20044;-79
2022/06/15 13:33:16;;;;;;;6.60;2.97;;;;;;;;;;5069339;28;20209;-79
2022/06/15 13:35:42;;;;;;;7.00;3.00;;;;;;;;;;5078175;28;20012;-78
2022/06/15 13:38:19;;;;;;;10.88;2.80;;;;;;;;;;5081840;28;20305;-78
2022/06/15 13:40:54;;;;;;;6.68;2.60;;;;;;;;;;5081783;28;20040;-78
2022/06/15 13:43:29;;;;;;;7.32;2.70;;;;;;;;;;5081584;28;20021;-78
2022/06/15 13:46:02;;;;;;;8.73;2.80;;;;;;;;;;5081691;28;20020;-78
2022/06/15 13:48:36;;;;;;;6.85;2.80;;;;;;;;;;5081721;28;20040;-79
2022/06/15 13:51:14;;;;;;;;;;;;;;;;;;5077447;28;20324;-79
2022/06/15 13:54:17;;;;;;;10.27;3.10;;;;;;;;;;5079187;28;19914;-80
2022/06/15 13:56:57;;;;;;;8.07;2.67;;;;;;;;;;5062633;28;20036;-81
2022/06/15 14:00:01;;;;;;;5.68;2.78;;;;;;;;;;5044703;28;20037;-80
2022/06/15 14:02:51;;;;;;;10.45;2.72;;;;;;;;;;5067334;28;20321;-80
2022/06/15 14:05:52;;;;;;;8.43;2.60;;;;;;;;;;5066735;28;20029;-80
2022/06/15 14:08:52;;;;;;;8.18;2.60;;;;;;;;;;5074420;28;20016;-79
2022/06/15 14:11:42;;;;;;;7.55;2.72;;;;;;;;;;5080465;28;20020;-77
2022/06/15 14:14:19;;;;;;;6.93;2.40;;;;;;;;;;5074112;28;20025;-78
2022/06/15 14:17:12;;;;;;;5.53;2.60;;;;;;;;;;5080854;28;20029;-79
2022/06/15 14:19:44;;;;;;;6.75;2.60;;;;;;;;;;5072786;28;20036;-79
2022/06/15 14:22:22;;;;;;;6.05;2.40;;;;;;;;;;5074994;28;20055;-79
2022/06/15 14:24:48;;;;;;;4.50;2.45;;;;;;;;;;5076833;28;20039;-79
2022/06/15 14:27:31;;;;;;;10.80;2.45;;;;;;;;;;5080415;28;20074;-79
2022/06/15 14:29:58;;;;;;;6.63;2.70;;;;;;;;;;5071825;28;20062;-80
2022/06/15 14:32:26;;;;;;;6.97;2.47;;;;;;;;;;5077578;28;20032;-80
2022/06/15 14:34:52;;;;;;;8.50;2.83;;;;;;;;;;5076138;28;20020;-78
2022/06/15 14:37:21;;;;;;;7.18;2.70;;;;;;;;;;5079419;28;20056;-80
2022/06/15 14:39:51;;;;;;;6.43;2.58;;;;;;;;;;5071677;28;20056;-79
2022/06/15 14:42:22;;;;;;;6.57;2.40;;;;;;;;;;5069264;28;20029;-79
2022/06/15 14:44:49;;;;;;;11.07;2.83;;;;;;;;;;5071755;28;20088;-78
2022/06/15 14:47:18;;;;;;;5.75;2.50;;;;;;;;;;5056453;28;20020;-80
2022/06/15 14:49:50;;;;;;;4.57;2.63;;;;;;;;;;5080985;28;20094;-79
2022/06/15 14:52:18;;;;;;;5.78;2.50;;;;;;;;;;5070764;28;20090;-79
2022/06/15 14:54:46;;;;;;;15.52;3.35;;;;;;;;;;5061769;28;20029;-78
2022/06/15 14:57:23;;;;;;;6.75;2.97;;;;;;;;;;5043524;28;20025;-78
2022/06/15 14:59:58;;;;;;;7.13;2.90;;;;;;;;;;5061333;28;20105;-79
2022/06/15 15:02:40;;;;;;;6.35;3.20;;;;;;;;;;5067234;28;20032;-79
2022/06/15 15:05:07;;;;;;;7.40;3.10;;;;;;;;;;5081348;28;20024;-80
2022/06/15 15:10:44;;;;;;;7.55;3.40;;;;;;;;;;5073324;28;20028;-81
2022/06/15 15:13:21;;;;;;;5.93;2.95;;;;;;;;;;5059617;28;20325;-80
2022/06/15 15:15:52;;;;;;;8.70;3.10;;;;;;;;;;5069403;28;20029;-79
2022/06/15 15:18:22;;;;;;;8.20;3.42;;;;;;;;;;5071147;28;20036;-78
2022/06/15 15:20:49;;;;;;;9.40;3.33;;;;;;;;;;5070050;28;20044;-80
2022/06/15 15:23:16;;;;;;;8.98;3.20;;;;;;;;;;5056927;28;20029;-86
2022/06/15 15:25:53;;;;;;;9.65;3.08;;;;;;;;;;5061734;28;20096;-80
2022/06/15 15:34:10;;;;;;;8.68;3.13;;;;;;;;;;5079862;28;20130;-80
2022/06/15 15:39:42;;;;;;;8.00;3.28;;;;;;;;;;5061063;28;20087;-79